Caroleen, North Carolina
Current Conditions -  °F | °C
As of 3:35 PM on Monday 22 Dec 2014 (Local Time) from KEHO Reporting Station
Haze Haze  
Wind Chill: 32°   Ceiling: 500
Heat Index: 38°   Visibility: 3mi
Dew Point: 37°   Wind: 8mph
Humidity: 97%   Direction: 30°NNE
Pressure: 30.04"   Gusts: NA
Location:  35.28°N, 81.8°W
Report Text: KEHO 222035Z AUTO 03007KT 3SM BR OVC005 03/03 A3004 RMK AO2 T00330028
Loading
Personal Weather Stations






























Interactive Weather Map New forecast layout! Learn more

10-Day Weather Forecast

Advertisements
Track Severe Weather on mobile